sensor_id;sensor_type;location;lat;lon;timestamp;pressure;altitude;pressure_sealevel;temperature;humidity
10510;BME280;5303;53.266;10.410;2022-12-07T00:01:57;100997.16;;;3.71;100.00
10510;BME280;5303;53.266;10.410;2022-12-07T00:04:23;100987.25;;;3.72;100.00
10510;BME280;5303;53.266;10.410;2022-12-07T00:06:51;100992.03;;;3.80;100.00
10510;BME280;5303;53.266;10.410;2022-12-07T00:09:18;100993.88;;;3.79;100.00
10510;BME280;5303;53.266;10.410;2022-12-07T00:11:44;100995.19;;;3.85;100.00
10510;BME280;5303;53.266;10.410;2022-12-07T00:14:14;100993.81;;;3.90;100.00
10510;BME280;5303;53.266;10.410;2022-12-07T00:16:40;100987.59;;;3.90;100.00
10510;BME280;5303;53.266;10.410;2022-12-07T00:19:07;100984.50;;;3.94;100.00
10510;BME280;5303;53.266;10.410;2022-12-07T00:21:34;100977.50;;;4.03;100.00
10510;BME280;5303;53.266;10.410;2022-12-07T00:24:00;100968.41;;;4.04;100.00
10510;BME280;5303;53.266;10.410;2022-12-07T00:26:30;100969.41;;;4.03;100.00
10510;BME280;5303;53.266;10.410;2022-12-07T00:28:58;100957.53;;;4.06;100.00
10510;BME280;5303;53.266;10.410;2022-12-07T00:31:31;100965.22;;;4.10;100.00
10510;BME280;5303;53.266;10.410;2022-12-07T00:33:59;100961.56;;;4.11;100.00
10510;BME280;5303;53.266;10.410;2022-12-07T00:36:24;100962.25;;;4.13;100.00
10510;BME280;5303;53.266;10.410;2022-12-07T00:38:50;100954.91;;;4.15;100.00
10510;BME280;5303;53.266;10.410;2022-12-07T00:41:20;100945.84;;;4.16;100.00
10510;BME280;5303;53.266;10.410;2022-12-07T00:43:47;100945.56;;;4.19;100.00
10510;BME280;5303;53.266;10.410;2022-12-07T00:46:14;100936.53;;;4.20;100.00
10510;BME280;5303;53.266;10.410;2022-12-07T00:48:39;100922.91;;;4.22;100.00
10510;BME280;5303;53.266;10.410;2022-12-07T00:51:05;100915.88;;;4.31;100.00
10510;BME280;5303;53.266;10.410;2022-12-07T00:53:33;100905.13;;;4.19;100.00
10510;BME280;5303;53.266;10.410;2022-12-07T00:56:08;100896.00;;;4.32;100.00
10510;BME280;5303;53.266;10.410;2022-12-07T00:58:34;100901.91;;;4.26;100.00
10510;BME280;5303;53.266;10.410;2022-12-07T01:01:01;100902.66;;;4.28;100.00
10510;BME280;5303;53.266;10.410;2022-12-07T01:03:27;100901.06;;;4.25;100.00
10510;BME280;5303;53.266;10.410;2022-12-07T01:05:53;100913.31;;;4.29;100.00
10510;BME280;5303;53.266;10.410;2022-12-07T01:08:20;100909.34;;;4.33;100.00
10510;BME280;5303;53.266;10.410;2022-12-07T01:10:46;100910.94;;;4.36;100.00
10510;BME280;5303;53.266;10.410;2022-12-07T01:13:11;100904.06;;;4.43;100.00
10510;BME280;5303;53.266;10.410;2022-12-07T01:15:44;100899.03;;;4.38;100.00
10510;BME280;5303;53.266;10.410;2022-12-07T01:18:10;100902.31;;;4.42;100.00
10510;BME280;5303;53.266;10.410;2022-12-07T01:20:36;100898.78;;;4.41;100.00
10510;BME280;5303;53.266;10.410;2022-12-07T01:23:02;100901.88;;;4.37;100.00
10510;BME280;5303;53.266;10.410;2022-12-07T01:25:28;100899.72;;;4.31;100.00
10510;BME280;5303;53.266;10.410;2022-12-07T01:27:53;100898.22;;;4.27;100.00
10510;BME280;5303;53.266;10.410;2022-12-07T01:30:18;100890.16;;;4.27;100.00
10510;BME280;5303;53.266;10.410;2022-12-07T01:32:44;100888.69;;;4.23;100.00
10510;BME280;5303;53.266;10.410;2022-12-07T01:35:09;100889.97;;;4.18;100.00
10510;BME280;5303;53.266;10.410;2022-12-07T01:37:38;100886.47;;;4.28;100.00
10510;BME280;5303;53.266;10.410;2022-12-07T01:40:07;100883.72;;;4.18;100.00
10510;BME280;5303;53.266;10.410;2022-12-07T01:42:33;100877.91;;;4.23;100.00
10510;BME280;5303;53.266;10.410;2022-12-07T01:47:51;100872.41;;;4.24;100.00
10510;BME280;5303;53.266;10.410;2022-12-07T01:50:19;100874.38;;;4.22;100.00
10510;BME280;5303;53.266;10.410;2022-12-07T01:52:48;100865.69;;;4.18;100.00
10510;BME280;5303;53.266;10.410;2022-12-07T01:55:15;100876.47;;;4.18;100.00
10510;BME280;5303;53.266;10.410;2022-12-07T01:57:43;100874.19;;;4.35;100.00
10510;BME280;5303;53.266;10.410;2022-12-07T02:00:11;100875.19;;;4.34;100.00
10510;BME280;5303;53.266;10.410;2022-12-07T02:02:42;100877.78;;;4.45;100.00
10510;BME280;5303;53.266;10.410;2022-12-07T02:05:09;100872.88;;;4.50;100.00
10510;BME280;5303;53.266;10.410;2022-12-07T02:07:36;100880.22;;;4.48;100.00
10510;BME280;5303;53.266;10.410;2022-12-07T02:12:51;100871.19;;;4.59;100.00
10510;BME280;5303;53.266;10.410;2022-12-07T02:15:20;100871.75;;;4.53;100.00
10510;BME280;5303;53.266;10.410;2022-12-07T02:18:00;100861.06;;;4.51;100.00
10510;BME280;5303;53.266;10.410;2022-12-07T02:20:37;100862.97;;;4.60;100.00
10510;BME280;5303;53.266;10.410;2022-12-07T02:25:52;100856.78;;;4.49;100.00
10510;BME280;5303;53.266;10.410;2022-12-07T02:31:25;100849.03;;;4.55;100.00
10510;BME280;5303;53.266;10.410;2022-12-07T02:34:00;100841.34;;;4.51;100.00
10510;BME280;5303;53.266;10.410;2022-12-07T02:36:33;100843.63;;;4.55;100.00
10510;BME280;5303;53.266;10.410;2022-12-07T02:39:11;100848.06;;;4.56;100.00
10510;BME280;5303;53.266;10.410;2022-12-07T02:41:46;100846.63;;;4.62;100.00
10510;BME280;5303;53.266;10.410;2022-12-07T02:44:14;100846.53;;;4.63;100.00
10510;BME280;5303;53.266;10.410;2022-12-07T02:46:51;100842.97;;;4.63;100.00
10510;BME280;5303;53.266;10.410;2022-12-07T02:49:18;100836.47;;;4.65;100.00
10510;BME280;5303;53.266;10.410;2022-12-07T02:51:46;100840.41;;;4.61;100.00
10510;BME280;5303;53.266;10.410;2022-12-07T02:54:13;100830.88;;;4.57;100.00
10510;BME280;5303;53.266;10.410;2022-12-07T03:05:21;100841.19;;;4.52;100.00
10510;BME280;5303;53.266;10.410;2022-12-07T03:10:13;100831.28;;;4.53;100.00
10510;BME280;5303;53.266;10.410;2022-12-07T03:13:03;100829.13;;;4.47;100.00
10510;BME280;5303;53.266;10.410;2022-12-07T03:18:30;100832.34;;;4.40;100.00
10510;BME280;5303;53.266;10.410;2022-12-07T03:21:02;100833.00;;;4.33;100.00
10510;BME280;5303;53.266;10.410;2022-12-07T03:23:32;100833.25;;;4.30;100.00
10510;BME280;5303;53.266;10.410;2022-12-07T03:26:00;100835.84;;;4.31;100.00
10510;BME280;5303;53.266;10.410;2022-12-07T03:28:33;100838.78;;;4.28;100.00
10510;BME280;5303;53.266;10.410;2022-12-07T03:31:07;100838.66;;;4.30;100.00
10510;BME280;5303;53.266;10.410;2022-12-07T03:33:40;100838.13;;;4.36;100.00
10510;BME280;5303;53.266;10.410;2022-12-07T03:36:13;100842.09;;;4.32;100.00
10510;BME280;5303;53.266;10.410;2022-12-07T03:38:40;100835.97;;;4.30;100.00
10510;BME280;5303;53.266;10.410;2022-12-07T03:41:16;100831.63;;;4.38;100.00
10510;BME280;5303;53.266;10.410;2022-12-07T03:43:44;100845.03;;;4.29;100.00
10510;BME280;5303;53.266;10.410;2022-12-07T03:49:02;100828.94;;;4.17;100.00
10510;BME280;5303;53.266;10.410;2022-12-07T03:51:48;100829.22;;;4.14;100.00
10510;BME280;5303;53.266;10.410;2022-12-07T03:54:21;100830.69;;;4.07;100.00
10510;BME280;5303;53.266;10.410;2022-12-07T03:56:47;100822.59;;;4.07;100.00
10510;BME280;5303;53.266;10.410;2022-12-07T03:59:14;100829.25;;;4.03;100.00
10510;BME280;5303;53.266;10.410;2022-12-07T04:01:44;100832.53;;;4.07;100.00
10510;BME280;5303;53.266;10.410;2022-12-07T04:04:10;100838.72;;;3.97;100.00
10510;BME280;5303;53.266;10.410;2022-12-07T04:06:36;100841.81;;;3.93;100.00
10510;BME280;5303;53.266;10.410;2022-12-07T04:09:01;100840.88;;;3.83;100.00
10510;BME280;5303;53.266;10.410;2022-12-07T04:11:26;100838.91;;;3.85;100.00
10510;BME280;5303;53.266;10.410;2022-12-07T04:13:51;100846.03;;;3.74;100.00
10510;BME280;5303;53.266;10.410;2022-12-07T04:16:35;100840.53;;;3.76;100.00
10510;BME280;5303;53.266;10.410;2022-12-07T04:19:00;100849.84;;;3.72;100.00
10510;BME280;5303;53.266;10.410;2022-12-07T04:21:26;100851.84;;;3.70;100.00
10510;BME280;5303;53.266;10.410;2022-12-07T04:23:51;100853.53;;;3.71;100.00
10510;BME280;5303;53.266;10.410;2022-12-07T04:26:16;100870.53;;;3.71;100.00
10510;BME280;5303;53.266;10.410;2022-12-07T04:28:41;100856.81;;;3.74;100.00
10510;BME280;5303;53.266;10.410;2022-12-07T04:31:07;100862.09;;;3.76;100.00
10510;BME280;5303;53.266;10.410;2022-12-07T04:33:32;100855.38;;;3.70;100.00
10510;BME280;5303;53.266;10.410;2022-12-07T04:35:57;100851.69;;;3.71;100.00
10510;BME280;5303;53.266;10.410;2022-12-07T04:38:23;100856.75;;;3.65;100.00
10510;BME280;5303;53.266;10.410;2022-12-07T04:40:48;100856.88;;;3.63;100.00
10510;BME280;5303;53.266;10.410;2022-12-07T04:43:13;100853.44;;;3.61;100.00
10510;BME280;5303;53.266;10.410;2022-12-07T04:45:38;100858.59;;;3.64;100.00
10510;BME280;5303;53.266;10.410;2022-12-07T04:48:04;100853.22;;;3.53;100.00
10510;BME280;5303;53.266;10.410;2022-12-07T04:50:29;100859.13;;;3.47;100.00
10510;BME280;5303;53.266;10.410;2022-12-07T04:52:54;100846.78;;;3.44;100.00
10510;BME280;5303;53.266;10.410;2022-12-07T04:55:20;100857.19;;;3.38;100.00
10510;BME280;5303;53.266;10.410;2022-12-07T04:57:45;100859.38;;;3.44;100.00
10510;BME280;5303;53.266;10.410;2022-12-07T05:00:12;100853.13;;;3.43;100.00
10510;BME280;5303;53.266;10.410;2022-12-07T05:02:37;100858.91;;;3.39;100.00
10510;BME280;5303;53.266;10.410;2022-12-07T05:05:02;100852.31;;;3.32;100.00
10510;BME280;5303;53.266;10.410;2022-12-07T05:07:28;100857.56;;;3.33;100.00
10510;BME280;5303;53.266;10.410;2022-12-07T05:09:53;100855.00;;;3.32;100.00
10510;BME280;5303;53.266;10.410;2022-12-07T05:12:18;100858.06;;;3.27;100.00
10510;BME280;5303;53.266;10.410;2022-12-07T05:14:43;100854.16;;;3.31;100.00
10510;BME280;5303;53.266;10.410;2022-12-07T05:17:09;100859.69;;;3.18;100.00
10510;BME280;5303;53.266;10.410;2022-12-07T05:19:34;100858.19;;;3.14;100.00
10510;BME280;5303;53.266;10.410;2022-12-07T05:21:59;100852.56;;;3.17;100.00
10510;BME280;5303;53.266;10.410;2022-12-07T05:24:25;100865.78;;;3.20;100.00
10510;BME280;5303;53.266;10.410;2022-12-07T05:26:50;100864.47;;;3.15;100.00
10510;BME280;5303;53.266;10.410;2022-12-07T05:29:16;100861.38;;;3.19;100.00
10510;BME280;5303;53.266;10.410;2022-12-07T05:31:43;100859.31;;;3.12;100.00
10510;BME280;5303;53.266;10.410;2022-12-07T05:34:09;100862.88;;;3.12;100.00
10510;BME280;5303;53.266;10.410;2022-12-07T05:36:35;100861.03;;;3.13;100.00
10510;BME280;5303;53.266;10.410;2022-12-07T05:39:00;100859.19;;;3.13;100.00
10510;BME280;5303;53.266;10.410;2022-12-07T05:41:25;100864.56;;;3.13;100.00
10510;BME280;5303;53.266;10.410;2022-12-07T05:44:09;100863.38;;;3.06;100.00
10510;BME280;5303;53.266;10.410;2022-12-07T05:46:34;100872.53;;;3.03;100.00
10510;BME280;5303;53.266;10.410;2022-12-07T05:49:01;100867.28;;;3.02;100.00
10510;BME280;5303;53.266;10.410;2022-12-07T05:51:26;100865.19;;;2.94;100.00
10510;BME280;5303;53.266;10.410;2022-12-07T05:53:52;100864.94;;;2.97;100.00
10510;BME280;5303;53.266;10.410;2022-12-07T05:56:17;100858.56;;;2.98;100.00
10510;BME280;5303;53.266;10.410;2022-12-07T05:58:42;100860.78;;;3.04;100.00
10510;BME280;5303;53.266;10.410;2022-12-07T06:01:26;100855.03;;;2.98;100.00
10510;BME280;5303;53.266;10.410;2022-12-07T06:03:51;100854.94;;;2.99;100.00
10510;BME280;5303;53.266;10.410;2022-12-07T06:06:16;100853.69;;;3.03;100.00
10510;BME280;5303;53.266;10.410;2022-12-07T06:08:42;100858.09;;;3.04;100.00
10510;BME280;5303;53.266;10.410;2022-12-07T06:11:08;100853.47;;;2.95;100.00
10510;BME280;5303;53.266;10.410;2022-12-07T06:13:51;100856.16;;;2.95;100.00
10510;BME280;5303;53.266;10.410;2022-12-07T06:16:17;100856.28;;;2.94;100.00
10510;BME280;5303;53.266;10.410;2022-12-07T06:18:42;100854.09;;;2.99;100.00
10510;BME280;5303;53.266;10.410;2022-12-07T06:21:07;100854.81;;;2.90;100.00
10510;BME280;5303;53.266;10.410;2022-12-07T06:23:33;100851.28;;;2.89;100.00
10510;BME280;5303;53.266;10.410;2022-12-07T06:25:58;100862.38;;;2.85;100.00
10510;BME280;5303;53.266;10.410;2022-12-07T06:28:23;100862.88;;;2.90;100.00
10510;BME280;5303;53.266;10.410;2022-12-07T06:30:57;100861.53;;;2.84;100.00
10510;BME280;5303;53.266;10.410;2022-12-07T06:33:23;100865.31;;;2.82;100.00
10510;BME280;5303;53.266;10.410;2022-12-07T06:35:48;100860.19;;;2.78;100.00
10510;BME280;5303;53.266;10.410;2022-12-07T06:38:13;100859.09;;;2.81;100.00
10510;BME280;5303;53.266;10.410;2022-12-07T06:40:39;100864.84;;;2.76;100.00
10510;BME280;5303;53.266;10.410;2022-12-07T06:43:04;100861.41;;;2.74;100.00
10510;BME280;5303;53.266;10.410;2022-12-07T06:45:29;100863.72;;;2.68;100.00
10510;BME280;5303;53.266;10.410;2022-12-07T06:47:54;100865.31;;;2.70;100.00
10510;BME280;5303;53.266;10.410;2022-12-07T06:50:20;100858.72;;;2.74;100.00
10510;BME280;5303;53.266;10.410;2022-12-07T06:52:45;100869.59;;;2.62;100.00
10510;BME280;5303;53.266;10.410;2022-12-07T06:55:10;100866.16;;;2.60;100.00
10510;BME280;5303;53.266;10.410;2022-12-07T06:57:35;100859.06;;;2.59;100.00
10510;BME280;5303;53.266;10.410;2022-12-07T07:00:01;100857.00;;;2.62;100.00
10510;BME280;5303;53.266;10.410;2022-12-07T07:02:27;100860.91;;;2.58;100.00
10510;BME280;5303;53.266;10.410;2022-12-07T07:04:53;100859.81;;;2.61;100.00
10510;BME280;5303;53.266;10.410;2022-12-07T07:07:18;100852.97;;;2.68;100.00
10510;BME280;5303;53.266;10.410;2022-12-07T07:09:43;100859.44;;;2.65;100.00
10510;BME280;5303;53.266;10.410;2022-12-07T07:12:09;100868.50;;;2.64;100.00
10510;BME280;5303;53.266;10.410;2022-12-07T07:14:34;100863.59;;;2.69;100.00
10510;BME280;5303;53.266;10.410;2022-12-07T07:16:59;100868.13;;;2.69;100.00
10510;BME280;5303;53.266;10.410;2022-12-07T07:19:25;100862.03;;;2.78;100.00
10510;BME280;5303;53.266;10.410;2022-12-07T07:21:50;100863.84;;;2.66;100.00
10510;BME280;5303;53.266;10.410;2022-12-07T07:24:15;100863.25;;;2.74;100.00
10510;BME280;5303;53.266;10.410;2022-12-07T07:26:40;100863.84;;;2.77;100.00
10510;BME280;5303;53.266;10.410;2022-12-07T07:29:06;100869.47;;;2.74;100.00
10510;BME280;5303;53.266;10.410;2022-12-07T07:31:31;100863.84;;;2.89;100.00
10510;BME280;5303;53.266;10.410;2022-12-07T07:33:56;100870.69;;;2.82;100.00
10510;BME280;5303;53.266;10.410;2022-12-07T07:36:22;100866.06;;;2.84;100.00
10510;BME280;5303;53.266;10.410;2022-12-07T07:38:47;100867.16;;;2.92;100.00
10510;BME280;5303;53.266;10.410;2022-12-07T07:41:12;100870.97;;;2.90;100.00
10510;BME280;5303;53.266;10.410;2022-12-07T07:43:38;100875.09;;;2.94;100.00
10510;BME280;5303;53.266;10.410;2022-12-07T07:46:03;100880.09;;;2.98;100.00
10510;BME280;5303;53.266;10.410;2022-12-07T07:48:28;100876.69;;;2.96;100.00
10510;BME280;5303;53.266;10.410;2022-12-07T07:50:53;100874.50;;;2.90;100.00
10510;BME280;5303;53.266;10.410;2022-12-07T07:53:19;100884.88;;;3.06;100.00
10510;BME280;5303;53.266;10.410;2022-12-07T07:55:54;100889.53;;;3.04;100.00
10510;BME280;5303;53.266;10.410;2022-12-07T07:58:20;100883.19;;;3.05;100.00
10510;BME280;5303;53.266;10.410;2022-12-07T08:00:45;100875.09;;;3.16;100.00
10510;BME280;5303;53.266;10.410;2022-12-07T08:03:10;100872.53;;;3.03;100.00
10510;BME280;5303;53.266;10.410;2022-12-07T08:05:37;100872.41;;;3.16;100.00
10510;BME280;5303;53.266;10.410;2022-12-07T08:08:02;100869.22;;;3.22;100.00
10510;BME280;5303;53.266;10.410;2022-12-07T08:10:27;100882.78;;;3.21;100.00
10510;BME280;5303;53.266;10.410;2022-12-07T08:12:53;100881.69;;;3.23;100.00
10510;BME280;5303;53.266;10.410;2022-12-07T08:15:47;100882.91;;;3.19;100.00
10510;BME280;5303;53.266;10.410;2022-12-07T08:18:14;100885.59;;;3.19;100.00
10510;BME280;5303;53.266;10.410;2022-12-07T08:20:42;100882.66;;;3.22;100.00
10510;BME280;5303;53.266;10.410;2022-12-07T08:23:08;100885.72;;;3.29;100.00
10510;BME280;5303;53.266;10.410;2022-12-07T08:25:34;100883.53;;;3.34;100.00
10510;BME280;5303;53.266;10.410;2022-12-07T08:28:00;100886.56;;;3.30;100.00
10510;BME280;5303;53.266;10.410;2022-12-07T08:30:27;100892.56;;;3.33;100.00
10510;BME280;5303;53.266;10.410;2022-12-07T08:32:53;100897.09;;;3.33;100.00
10510;BME280;5303;53.266;10.410;2022-12-07T08:35:18;100887.41;;;3.41;100.00
10510;BME280;5303;53.266;10.410;2022-12-07T08:37:44;100890.09;;;3.41;100.00
10510;BME280;5303;53.266;10.410;2022-12-07T08:40:11;100885.56;;;3.42;100.00
10510;BME280;5303;53.266;10.410;2022-12-07T08:42:41;100880.56;;;3.37;100.00
10510;BME280;5303;53.266;10.410;2022-12-07T08:45:08;100888.25;;;3.42;100.00
10510;BME280;5303;53.266;10.410;2022-12-07T08:47:36;100879.94;;;3.45;100.00
10510;BME280;5303;53.266;10.410;2022-12-07T08:50:03;100885.44;;;3.43;100.00
10510;BME280;5303;53.266;10.410;2022-12-07T08:52:31;100887.88;;;3.46;100.00
10510;BME280;5303;53.266;10.410;2022-12-07T08:54:58;100883.63;;;3.44;100.00
10510;BME280;5303;53.266;10.410;2022-12-07T08:57:24;100885.06;;;3.48;100.00
10510;BME280;5303;53.266;10.410;2022-12-07T08:59:49;100888.75;;;3.47;100.00
10510;BME280;5303;53.266;10.410;2022-12-07T09:02:14;100890.22;;;3.51;100.00
10510;BME280;5303;53.266;10.410;2022-12-07T09:04:40;100887.59;;;3.61;100.00
10510;BME280;5303;53.266;10.410;2022-12-07T09:07:05;100889.41;;;3.71;100.00
10510;BME280;5303;53.266;10.410;2022-12-07T09:09:31;100886.97;;;3.68;100.00
10510;BME280;5303;53.266;10.410;2022-12-07T09:11:56;100885.34;;;3.77;100.00
10510;BME280;5303;53.266;10.410;2022-12-07T09:14:22;100882.66;;;3.77;100.00
10510;BME280;5303;53.266;10.410;2022-12-07T09:16:47;100891.59;;;3.78;100.00
10510;BME280;5303;53.266;10.410;2022-12-07T09:19:12;100890.19;;;3.94;100.00
10510;BME280;5303;53.266;10.410;2022-12-07T09:21:37;100895.06;;;4.01;100.00
10510;BME280;5303;53.266;10.410;2022-12-07T09:24:03;100888.03;;;4.09;100.00
10510;BME280;5303;53.266;10.410;2022-12-07T09:26:28;100878.25;;;4.08;100.00
10510;BME280;5303;53.266;10.410;2022-12-07T09:28:53;100882.88;;;4.17;100.00
10510;BME280;5303;53.266;10.410;2022-12-07T09:31:19;100882.13;;;4.15;100.00
10510;BME280;5303;53.266;10.410;2022-12-07T09:33:44;100885.31;;;4.20;100.00
10510;BME280;5303;53.266;10.410;2022-12-07T09:36:10;100881.72;;;4.20;100.00
10510;BME280;5303;53.266;10.410;2022-12-07T09:38:35;100877.06;;;4.22;100.00
10510;BME280;5303;53.266;10.410;2022-12-07T09:41:05;100883.47;;;4.21;100.00
10510;BME280;5303;53.266;10.410;2022-12-07T09:43:32;100874.97;;;4.26;100.00
10510;BME280;5303;53.266;10.410;2022-12-07T09:45:59;100880.94;;;4.29;100.00
10510;BME280;5303;53.266;10.410;2022-12-07T09:48:32;100877.47;;;4.38;100.00
10510;BME280;5303;53.266;10.410;2022-12-07T09:50:59;100873.75;;;4.39;100.00
10510;BME280;5303;53.266;10.410;2022-12-07T09:53:33;100874.03;;;4.36;100.00
10510;BME280;5303;53.266;10.410;2022-12-07T09:55:59;100872.53;;;4.43;100.00
10510;BME280;5303;53.266;10.410;2022-12-07T09:58:27;100870.38;;;4.37;100.00
10510;BME280;5303;53.266;10.410;2022-12-07T10:00:56;100871.28;;;4.48;100.00
10510;BME280;5303;53.266;10.410;2022-12-07T10:03:22;100877.47;;;4.38;100.00
10510;BME280;5303;53.266;10.410;2022-12-07T10:05:50;100877.94;;;4.43;100.00
10510;BME280;5303;53.266;10.410;2022-12-07T10:08:16;100887.47;;;4.48;100.00
10510;BME280;5303;53.266;10.410;2022-12-07T10:10:43;100885.63;;;4.48;100.00
10510;BME280;5303;53.266;10.410;2022-12-07T10:13:12;100868.16;;;4.52;100.00
10510;BME280;5303;53.266;10.410;2022-12-07T10:18:28;100869.00;;;4.43;100.00
10510;BME280;5303;53.266;10.410;2022-12-07T10:21:12;100865.47;;;4.52;100.00
10510;BME280;5303;53.266;10.410;2022-12-07T10:23:41;100866.06;;;4.56;100.00
10510;BME280;5303;53.266;10.410;2022-12-07T10:28:54;100865.72;;;4.49;100.00
10510;BME280;5303;53.266;10.410;2022-12-07T10:31:22;100857.69;;;4.59;100.00
10510;BME280;5303;53.266;10.410;2022-12-07T10:33:55;100856.41;;;4.53;100.00
10510;BME280;5303;53.266;10.410;2022-12-07T10:36:39;100847.53;;;4.62;100.00
10510;BME280;5303;53.266;10.410;2022-12-07T10:39:11;100851.50;;;4.68;100.00
10510;BME280;5303;53.266;10.410;2022-12-07T10:41:57;100849.38;;;4.72;100.00
10510;BME280;5303;53.266;10.410;2022-12-07T10:44:31;100841.41;;;4.60;100.00
10510;BME280;5303;53.266;10.410;2022-12-07T11:03:53;100836.28;;;4.88;100.00
10510;BME280;5303;53.266;10.410;2022-12-07T11:09:40;100837.66;;;4.82;100.00
10510;BME280;5303;53.266;10.410;2022-12-07T11:12:24;100840.22;;;4.84;100.00
10510;BME280;5303;53.266;10.410;2022-12-07T11:15:03;100831.72;;;4.88;100.00
10510;BME280;5303;53.266;10.410;2022-12-07T11:17:56;100831.84;;;4.87;100.00
10510;BME280;5303;53.266;10.410;2022-12-07T11:23:03;100833.44;;;4.89;100.00
10510;BME280;5303;53.266;10.410;2022-12-07T11:25:34;100835.00;;;4.92;100.00
10510;BME280;5303;53.266;10.410;2022-12-07T11:31:09;100837.94;;;4.79;100.00
10510;BME280;5303;53.266;10.410;2022-12-07T11:33:42;100826.88;;;4.82;100.00
10510;BME280;5303;53.266;10.410;2022-12-07T11:39:02;100826.16;;;4.80;100.00
10510;BME280;5303;53.266;10.410;2022-12-07T11:41:33;100814.31;;;4.72;100.00
10510;BME280;5303;53.266;10.410;2022-12-07T11:44:21;100809.19;;;4.68;100.00
10510;BME280;5303;53.266;10.410;2022-12-07T11:46:55;100815.84;;;4.64;100.00
10510;BME280;5303;53.266;10.410;2022-12-07T11:49:47;100820.41;;;4.64;100.00
10510;BME280;5303;53.266;10.410;2022-12-07T11:55:16;100817.19;;;4.80;100.00
10510;BME280;5303;53.266;10.410;2022-12-07T11:57:46;100815.22;;;4.82;100.00
10510;BME280;5303;53.266;10.410;2022-12-07T12:00:16;100821.59;;;4.81;100.00
10510;BME280;5303;53.266;10.410;2022-12-07T12:02:52;100815.06;;;4.83;100.00
10510;BME280;5303;53.266;10.410;2022-12-07T12:05:24;100814.97;;;4.85;100.00
10510;BME280;5303;53.266;10.410;2022-12-07T12:08:00;100805.59;;;4.89;100.00
10510;BME280;5303;53.266;10.410;2022-12-07T12:13:28;100803.00;;;4.87;100.00
10510;BME280;5303;53.266;10.410;2022-12-07T12:19:11;100808.28;;;4.89;100.00
10510;BME280;5303;53.266;10.410;2022-12-07T12:21:31;100803.28;;;4.84;100.00
10510;BME280;5303;53.266;10.410;2022-12-07T12:24:01;100800.31;;;4.87;100.00
10510;BME280;5303;53.266;10.410;2022-12-07T12:26:31;100796.19;;;4.83;100.00
10510;BME280;5303;53.266;10.410;2022-12-07T12:29:19;100798.16;;;4.81;100.00
10510;BME280;5303;53.266;10.410;2022-12-07T12:32:03;100796.34;;;4.82;100.00
10510;BME280;5303;53.266;10.410;2022-12-07T12:34:40;100791.34;;;4.77;100.00
10510;BME280;5303;53.266;10.410;2022-12-07T12:37:40;100791.34;;;4.77;100.00
10510;BME280;5303;53.266;10.410;2022-12-07T12:42:48;100787.31;;;4.72;100.00
10510;BME280;5303;53.266;10.410;2022-12-07T12:45:20;100794.63;;;4.90;100.00
10510;BME280;5303;53.266;10.410;2022-12-07T12:47:57;100792.22;;;4.87;100.00
10510;BME280;5303;53.266;10.410;2022-12-07T12:53:02;100791.78;;;4.82;100.00
10510;BME280;5303;53.266;10.410;2022-12-07T13:01:15;100779.75;;;4.96;100.00
10510;BME280;5303;53.266;10.410;2022-12-07T13:03:34;100777.47;;;4.92;100.00
10510;BME280;5303;53.266;10.410;2022-12-07T13:06:34;100784.88;;;4.99;100.00
10510;BME280;5303;53.266;10.410;2022-12-07T13:09:01;100778.88;;;4.86;100.00
10510;BME280;5303;53.266;10.410;2022-12-07T13:11:33;100778.44;;;4.90;100.00
10510;BME280;5303;53.266;10.410;2022-12-07T13:14:35;100775.31;;;4.85;100.00
10510;BME280;5303;53.266;10.410;2022-12-07T13:17:00;100777.72;;;4.79;100.00
10510;BME280;5303;53.266;10.410;2022-12-07T13:22:35;100773.59;;;4.84;100.00
10510;BME280;5303;53.266;10.410;2022-12-07T13:25:30;100776.19;;;4.86;100.00
10510;BME280;5303;53.266;10.410;2022-12-07T13:28:16;100775.63;;;4.92;100.00
10510;BME280;5303;53.266;10.410;2022-12-07T13:30:59;100778.31;;;4.92;100.00
10510;BME280;5303;53.266;10.410;2022-12-07T13:33:28;100780.19;;;4.92;100.00
10510;BME280;5303;53.266;10.410;2022-12-07T13:35:55;100783.19;;;4.98;100.00
10510;BME280;5303;53.266;10.410;2022-12-07T13:38:35;100778.75;;;4.97;100.00
10510;BME280;5303;53.266;10.410;2022-12-07T13:43:27;100780.31;;;5.00;100.00
10510;BME280;5303;53.266;10.410;2022-12-07T13:45:57;100794.34;;;4.84;100.00
10510;BME280;5303;53.266;10.410;2022-12-07T13:48:35;100789.50;;;4.87;100.00
10510;BME280;5303;53.266;10.410;2022-12-07T13:51:03;100790.63;;;4.75;100.00
10510;BME280;5303;53.266;10.410;2022-12-07T13:53:29;100789.63;;;4.76;100.00
10510;BME280;5303;53.266;10.410;2022-12-07T13:55:59;100792.44;;;4.75;100.00
10510;BME280;5303;53.266;10.410;2022-12-07T13:58:26;100787.06;;;4.75;100.00
10510;BME280;5303;53.266;10.410;2022-12-07T14:00:52;100793.16;;;4.67;100.00
10510;BME280;5303;53.266;10.410;2022-12-07T14:05:44;100793.72;;;4.71;100.00
10510;BME280;5303;53.266;10.410;2022-12-07T14:10:53;100804.75;;;4.58;100.00
10510;BME280;5303;53.266;10.410;2022-12-07T14:13:56;100801.94;;;4.59;100.00
10510;BME280;5303;53.266;10.410;2022-12-07T14:18:51;100800.16;;;4.49;100.00
10510;BME280;5303;53.266;10.410;2022-12-07T14:21:22;100799.13;;;4.40;100.00
10510;BME280;5303;53.266;10.410;2022-12-07T14:24:14;100796.19;;;4.43;100.00
10510;BME280;5303;53.266;10.410;2022-12-07T14:26:40;100792.16;;;4.37;100.00
10510;BME280;5303;53.266;10.410;2022-12-07T14:29:30;100795.97;;;4.35;100.00
10510;BME280;5303;53.266;10.410;2022-12-07T14:31:57;100800.06;;;4.29;100.00
10510;BME280;5303;53.266;10.410;2022-12-07T14:34:24;100790.53;;;4.25;100.00
10510;BME280;5303;53.266;10.410;2022-12-07T14:36:50;100777.91;;;4.26;100.00